sensor_id;sensor_type;location;lat;lon;timestamp;pressure;altitude;pressure_sealevel;temperature;humidity
15674;BME280;7937;48.090;16.212;2022-11-20T00:02:57;97272.25;;;-0.56;93.76
15674;BME280;7937;48.090;16.212;2022-11-20T00:06:00;97266.16;;;-0.55;94.31
15674;BME280;7937;48.090;16.212;2022-11-20T00:09:03;97246.19;;;-0.53;94.64
15674;BME280;7937;48.090;16.212;2022-11-20T00:12:07;97260.84;;;-0.52;94.93
15674;BME280;7937;48.090;16.212;2022-11-20T00:15:09;97278.09;;;-0.51;94.80
15674;BME280;7937;48.090;16.212;2022-11-20T00:18:12;97282.53;;;-0.55;94.89
15674;BME280;7937;48.090;16.212;2022-11-20T00:21:18;97267.00;;;-0.55;95.05
15674;BME280;7937;48.090;16.212;2022-11-20T00:24:22;97261.88;;;-0.56;94.65
15674;BME280;7937;48.090;16.212;2022-11-20T00:27:25;97270.63;;;-0.59;94.65
15674;BME280;7937;48.090;16.212;2022-11-20T00:30:27;97283.97;;;-0.68;93.99
15674;BME280;7937;48.090;16.212;2022-11-20T00:33:30;97293.69;;;-0.73;94.19
15674;BME280;7937;48.090;16.212;2022-11-20T00:36:33;97285.13;;;-0.75;93.96
15674;BME280;7937;48.090;16.212;2022-11-20T00:39:35;97290.13;;;-0.70;94.20
15674;BME280;7937;48.090;16.212;2022-11-20T00:42:38;97295.88;;;-0.64;94.14
15674;BME280;7937;48.090;16.212;2022-11-20T00:45:40;97297.44;;;-0.60;94.45
15674;BME280;7937;48.090;16.212;2022-11-20T00:48:43;97309.47;;;-0.59;94.40
15674;BME280;7937;48.090;16.212;2022-11-20T00:51:45;97306.88;;;-0.59;94.50
15674;BME280;7937;48.090;16.212;2022-11-20T00:54:47;97314.53;;;-0.56;94.44
15674;BME280;7937;48.090;16.212;2022-11-20T00:57:50;97308.53;;;-0.56;93.93
15674;BME280;7937;48.090;16.212;2022-11-20T01:00:52;97308.53;;;-0.56;94.08
15674;BME280;7937;48.090;16.212;2022-11-20T01:04:00;97305.03;;;-0.55;94.55
15674;BME280;7937;48.090;16.212;2022-11-20T01:07:03;97310.16;;;-0.54;94.95
15674;BME280;7937;48.090;16.212;2022-11-20T01:10:06;97312.69;;;-0.52;94.89
15674;BME280;7937;48.090;16.212;2022-11-20T01:13:09;97315.28;;;-0.52;94.59
15674;BME280;7937;48.090;16.212;2022-11-20T01:16:38;97305.69;;;-0.50;94.72
15674;BME280;7937;48.090;16.212;2022-11-20T01:19:40;97311.78;;;-0.51;95.02
15674;BME280;7937;48.090;16.212;2022-11-20T01:22:42;97304.91;;;-0.52;95.25
15674;BME280;7937;48.090;16.212;2022-11-20T01:25:44;97300.56;;;-0.52;95.19
15674;BME280;7937;48.090;16.212;2022-11-20T01:28:47;97308.28;;;-0.50;95.45
15674;BME280;7937;48.090;16.212;2022-11-20T01:31:49;97305.53;;;-0.47;95.22
15674;BME280;7937;48.090;16.212;2022-11-20T01:34:53;97308.97;;;-0.47;95.43
15674;BME280;7937;48.090;16.212;2022-11-20T01:37:55;97312.34;;;-0.45;95.36
15674;BME280;7937;48.090;16.212;2022-11-20T01:40:57;97311.50;;;-0.45;95.62
15674;BME280;7937;48.090;16.212;2022-11-20T01:43:59;97308.00;;;-0.44;95.72
15674;BME280;7937;48.090;16.212;2022-11-20T01:47:04;97302.75;;;-0.43;95.20
15674;BME280;7937;48.090;16.212;2022-11-20T01:50:23;97302.81;;;-0.44;95.37
15674;BME280;7937;48.090;16.212;2022-11-20T01:53:31;97302.09;;;-0.48;95.20
15674;BME280;7937;48.090;16.212;2022-11-20T01:56:37;97324.59;;;-0.48;95.86
15674;BME280;7937;48.090;16.212;2022-11-20T01:59:45;97310.88;;;-0.50;95.91
15674;BME280;7937;48.090;16.212;2022-11-20T02:02:57;97312.63;;;-0.51;95.58
15674;BME280;7937;48.090;16.212;2022-11-20T02:06:14;97310.78;;;-0.49;95.77
15674;BME280;7937;48.090;16.212;2022-11-20T02:09:18;97314.22;;;-0.48;96.20
15674;BME280;7937;48.090;16.212;2022-11-20T02:12:20;97307.28;;;-0.48;95.61
15674;BME280;7937;48.090;16.212;2022-11-20T02:15:41;97321.09;;;-0.47;95.81
15674;BME280;7937;48.090;16.212;2022-11-20T02:18:45;97317.53;;;-0.45;96.10
15674;BME280;7937;48.090;16.212;2022-11-20T02:21:49;97314.03;;;-0.44;96.01
15674;BME280;7937;48.090;16.212;2022-11-20T02:24:54;97311.50;;;-0.45;95.88
15674;BME280;7937;48.090;16.212;2022-11-20T02:27:56;97313.19;;;-0.44;95.98
15674;BME280;7937;48.090;16.212;2022-11-20T02:30:59;97317.53;;;-0.45;96.23
15674;BME280;7937;48.090;16.212;2022-11-20T02:34:01;97314.81;;;-0.42;96.11
15674;BME280;7937;48.090;16.212;2022-11-20T02:37:03;97311.22;;;-0.39;96.56
15674;BME280;7937;48.090;16.212;2022-11-20T02:40:06;97308.56;;;-0.38;96.42
15674;BME280;7937;48.090;16.212;2022-11-20T02:43:08;97310.19;;;-0.35;96.31
15674;BME280;7937;48.090;16.212;2022-11-20T02:46:11;97311.88;;;-0.34;96.53
15674;BME280;7937;48.090;16.212;2022-11-20T02:49:13;97300.56;;;-0.31;96.48
15674;BME280;7937;48.090;16.212;2022-11-20T02:52:17;97298.81;;;-0.31;96.55
15674;BME280;7937;48.090;16.212;2022-11-20T02:55:19;97293.69;;;-0.32;96.49
15674;BME280;7937;48.090;16.212;2022-11-20T02:58:21;97298.88;;;-0.32;96.75
15674;BME280;7937;48.090;16.212;2022-11-20T03:01:24;97295.38;;;-0.31;96.88
15674;BME280;7937;48.090;16.212;2022-11-20T03:04:27;97297.81;;;-0.28;96.64
15674;BME280;7937;48.090;16.212;2022-11-20T03:07:29;97278.75;;;-0.27;96.76
15674;BME280;7937;48.090;16.212;2022-11-20T03:10:31;97268.31;;;-0.26;96.21
15674;BME280;7937;48.090;16.212;2022-11-20T03:13:34;97266.56;;;-0.25;96.69
15674;BME280;7937;48.090;16.212;2022-11-20T03:16:37;97265.72;;;-0.26;96.64
15674;BME280;7937;48.090;16.212;2022-11-20T03:19:40;97262.28;;;-0.26;96.91
15674;BME280;7937;48.090;16.212;2022-11-20T03:22:42;97256.25;;;-0.27;97.11
15674;BME280;7937;48.090;16.212;2022-11-20T03:25:44;97261.44;;;-0.27;96.98
15674;BME280;7937;48.090;16.212;2022-11-20T03:28:51;97266.63;;;-0.27;97.27
15674;BME280;7937;48.090;16.212;2022-11-20T03:31:53;97265.78;;;-0.27;97.18
15674;BME280;7937;48.090;16.212;2022-11-20T03:34:55;97263.25;;;-0.29;96.68
15674;BME280;7937;48.090;16.212;2022-11-20T03:37:57;97265.84;;;-0.29;97.22
15674;BME280;7937;48.090;16.212;2022-11-20T03:41:05;97259.75;;;-0.28;96.83
15674;BME280;7937;48.090;16.212;2022-11-20T03:44:09;97257.16;;;-0.28;96.94
15674;BME280;7937;48.090;16.212;2022-11-20T03:47:12;97257.31;;;-0.31;97.06
15674;BME280;7937;48.090;16.212;2022-11-20T03:50:14;97246.97;;;-0.31;97.08
15674;BME280;7937;48.090;16.212;2022-11-20T03:53:16;97246.97;;;-0.31;97.12
15674;BME280;7937;48.090;16.212;2022-11-20T03:56:21;97240.03;;;-0.30;97.04
15674;BME280;7937;48.090;16.212;2022-11-20T03:59:24;97243.44;;;-0.30;97.45
15674;BME280;7937;48.090;16.212;2022-11-20T04:02:26;97242.63;;;-0.30;97.39
15674;BME280;7937;48.090;16.212;2022-11-20T04:05:28;97230.47;;;-0.30;97.53
15674;BME280;7937;48.090;16.212;2022-11-20T04:08:30;97221.78;;;-0.29;97.63
15674;BME280;7937;48.090;16.212;2022-11-20T04:11:35;97229.50;;;-0.27;97.70
15674;BME280;7937;48.090;16.212;2022-11-20T04:14:37;97228.72;;;-0.29;97.33
15674;BME280;7937;48.090;16.212;2022-11-20T04:17:40;97231.25;;;-0.28;97.28
15674;BME280;7937;48.090;16.212;2022-11-20T04:20:42;97227.69;;;-0.25;97.47
15674;BME280;7937;48.090;16.212;2022-11-20T04:23:44;97218.28;;;-0.28;97.30
15674;BME280;7937;48.090;16.212;2022-11-20T04:26:46;97220.09;;;-0.30;97.48
15674;BME280;7937;48.090;16.212;2022-11-20T04:29:48;97219.28;;;-0.30;97.28
15674;BME280;7937;48.090;16.212;2022-11-20T04:32:51;97214.91;;;-0.30;97.07
15674;BME280;7937;48.090;16.212;2022-11-20T04:36:00;97207.06;;;-0.28;97.62
15674;BME280;7937;48.090;16.212;2022-11-20T04:39:06;97196.69;;;-0.28;97.45
15674;BME280;7937;48.090;16.212;2022-11-20T04:42:09;97193.19;;;-0.27;97.42
15674;BME280;7937;48.090;16.212;2022-11-20T04:45:30;97180.22;;;-0.27;97.37
15674;BME280;7937;48.090;16.212;2022-11-20T04:48:32;97178.72;;;-0.31;97.14
15674;BME280;7937;48.090;16.212;2022-11-20T04:51:34;97188.38;;;-0.35;97.26
15674;BME280;7937;48.090;16.212;2022-11-20T04:54:37;97189.34;;;-0.38;97.42
15674;BME280;7937;48.090;16.212;2022-11-20T04:57:39;97193.75;;;-0.40;97.96
15674;BME280;7937;48.090;16.212;2022-11-20T05:00:41;97193.84;;;-0.41;97.46
15674;BME280;7937;48.090;16.212;2022-11-20T05:03:44;97201.69;;;-0.43;98.12
15674;BME280;7937;48.090;16.212;2022-11-20T05:06:46;97197.41;;;-0.44;97.76
15674;BME280;7937;48.090;16.212;2022-11-20T05:09:48;97191.31;;;-0.43;97.97
15674;BME280;7937;48.090;16.212;2022-11-20T05:12:50;97197.34;;;-0.42;97.48
15674;BME280;7937;48.090;16.212;2022-11-20T05:15:53;97198.19;;;-0.42;97.86
15674;BME280;7937;48.090;16.212;2022-11-20T05:18:55;97197.28;;;-0.41;98.16
15674;BME280;7937;48.090;16.212;2022-11-20T05:21:57;97198.94;;;-0.40;98.22
15674;BME280;7937;48.090;16.212;2022-11-20T05:24:59;97198.88;;;-0.38;98.13
15674;BME280;7937;48.090;16.212;2022-11-20T05:28:01;97191.88;;;-0.36;97.80
15674;BME280;7937;48.090;16.212;2022-11-20T05:31:08;97204.75;;;-0.34;97.76
15674;BME280;7937;48.090;16.212;2022-11-20T05:34:10;97213.50;;;-0.37;97.99
15674;BME280;7937;48.090;16.212;2022-11-20T05:37:12;97201.44;;;-0.38;97.91
15674;BME280;7937;48.090;16.212;2022-11-20T05:40:15;97204.75;;;-0.34;98.03
15674;BME280;7937;48.090;16.212;2022-11-20T05:43:17;97212.41;;;-0.31;98.16
15674;BME280;7937;48.090;16.212;2022-11-20T05:46:20;97202.78;;;-0.29;97.44
15674;BME280;7937;48.090;16.212;2022-11-20T05:49:29;97215.25;;;-0.38;97.89
15674;BME280;7937;48.090;16.212;2022-11-20T05:52:31;97201.69;;;-0.43;97.75
15674;BME280;7937;48.090;16.212;2022-11-20T05:55:33;97199.03;;;-0.41;98.05
15674;BME280;7937;48.090;16.212;2022-11-20T05:58:35;97191.16;;;-0.40;98.33
15674;BME280;7937;48.090;16.212;2022-11-20T06:01:37;97207.53;;;-0.39;97.93
15674;BME280;7937;48.090;16.212;2022-11-20T06:04:39;97208.38;;;-0.39;98.59
15674;BME280;7937;48.090;16.212;2022-11-20T06:07:41;97211.06;;;-0.40;98.36
15674;BME280;7937;48.090;16.212;2022-11-20T06:10:43;97214.69;;;-0.44;98.03
15674;BME280;7937;48.090;16.212;2022-11-20T06:13:46;97218.13;;;-0.44;98.26
15674;BME280;7937;48.090;16.212;2022-11-20T06:16:48;97228.38;;;-0.41;98.62
15674;BME280;7937;48.090;16.212;2022-11-20T06:19:50;97219.66;;;-0.40;98.52
15674;BME280;7937;48.090;16.212;2022-11-20T06:22:52;97223.94;;;-0.39;98.67
15674;BME280;7937;48.090;16.212;2022-11-20T06:25:55;97233.34;;;-0.36;98.24
15674;BME280;7937;48.090;16.212;2022-11-20T06:28:57;97233.28;;;-0.34;98.95
15674;BME280;7937;48.090;16.212;2022-11-20T06:31:59;97233.16;;;-0.31;99.14
15674;BME280;7937;48.090;16.212;2022-11-20T06:35:01;97239.88;;;-0.27;98.92
15674;BME280;7937;48.090;16.212;2022-11-20T06:38:03;97237.22;;;-0.26;98.46
15674;BME280;7937;48.090;16.212;2022-11-20T06:41:07;97253.47;;;-0.22;98.55
15674;BME280;7937;48.090;16.212;2022-11-20T06:44:11;97256.91;;;-0.22;98.56
15674;BME280;7937;48.090;16.212;2022-11-20T06:47:13;97255.84;;;-0.18;98.82
15674;BME280;7937;48.090;16.212;2022-11-20T06:50:15;97260.97;;;-0.16;98.59
15674;BME280;7937;48.090;16.212;2022-11-20T06:53:17;97273.88;;;-0.15;99.29
15674;BME280;7937;48.090;16.212;2022-11-20T06:56:20;97273.81;;;-0.13;98.80
15674;BME280;7937;48.090;16.212;2022-11-20T06:59:22;97271.09;;;-0.10;98.48
15674;BME280;7937;48.090;16.212;2022-11-20T07:02:25;97277.09;;;-0.10;98.80
15674;BME280;7937;48.090;16.212;2022-11-20T07:05:33;97277.09;;;-0.10;98.72
15674;BME280;7937;48.090;16.212;2022-11-20T07:08:36;97276.19;;;-0.09;98.63
15674;BME280;7937;48.090;16.212;2022-11-20T07:11:38;97279.69;;;-0.10;98.67
15674;BME280;7937;48.090;16.212;2022-11-20T07:14:40;97283.13;;;-0.09;98.61
15674;BME280;7937;48.090;16.212;2022-11-20T07:17:43;97284.69;;;-0.05;98.19
15674;BME280;7937;48.090;16.212;2022-11-20T07:20:45;97285.41;;;-0.02;98.25
15674;BME280;7937;48.090;16.212;2022-11-20T07:23:47;97279.09;;;0.04;98.65
15674;BME280;7937;48.090;16.212;2022-11-20T07:26:49;97284.09;;;0.09;98.62
15674;BME280;7937;48.090;16.212;2022-11-20T07:29:51;97290.78;;;0.13;98.21
15674;BME280;7937;48.090;16.212;2022-11-20T07:32:54;97290.66;;;0.16;98.69
15674;BME280;7937;48.090;16.212;2022-11-20T07:35:58;97281.06;;;0.18;98.33
15674;BME280;7937;48.090;16.212;2022-11-20T07:39:01;97294.81;;;0.20;98.55
15674;BME280;7937;48.090;16.212;2022-11-20T07:42:03;97305.88;;;0.23;98.41
15674;BME280;7937;48.090;16.212;2022-11-20T07:45:06;97302.38;;;0.24;98.25
15674;BME280;7937;48.090;16.212;2022-11-20T07:48:09;97308.34;;;0.26;98.21
15674;BME280;7937;48.090;16.212;2022-11-20T07:51:11;97312.63;;;0.27;98.20
15674;BME280;7937;48.090;16.212;2022-11-20T07:54:15;97314.25;;;0.30;98.37
15674;BME280;7937;48.090;16.212;2022-11-20T07:57:17;97314.16;;;0.31;98.11
15674;BME280;7937;48.090;16.212;2022-11-20T08:00:19;97315.66;;;0.37;98.58
15674;BME280;7937;48.090;16.212;2022-11-20T08:03:21;97312.16;;;0.38;98.13
15674;BME280;7937;48.090;16.212;2022-11-20T08:06:26;97310.41;;;0.39;97.73
15674;BME280;7937;48.090;16.212;2022-11-20T08:09:28;97305.81;;;0.44;97.89
15674;BME280;7937;48.090;16.212;2022-11-20T08:12:30;97304.00;;;0.46;97.78
15674;BME280;7937;48.090;16.212;2022-11-20T08:15:51;97303.16;;;0.45;97.82
15674;BME280;7937;48.090;16.212;2022-11-20T08:18:53;97309.19;;;0.46;97.26
15674;BME280;7937;48.090;16.212;2022-11-20T08:21:55;97313.59;;;0.44;97.35
15674;BME280;7937;48.090;16.212;2022-11-20T08:24:57;97314.44;;;0.44;97.72
15674;BME280;7937;48.090;16.212;2022-11-20T08:28:07;97317.69;;;0.49;97.66
15674;BME280;7937;48.090;16.212;2022-11-20T08:31:22;97326.94;;;0.55;97.45
15674;BME280;7937;48.090;16.212;2022-11-20T08:34:24;97317.94;;;0.62;97.13
15674;BME280;7937;48.090;16.212;2022-11-20T08:37:27;97328.59;;;0.74;96.89
15674;BME280;7937;48.090;16.212;2022-11-20T08:40:29;97319.53;;;0.83;96.66
15674;BME280;7937;48.090;16.212;2022-11-20T08:43:31;97319.53;;;0.83;95.33
15674;BME280;7937;48.090;16.212;2022-11-20T08:46:38;97323.94;;;0.81;95.03
15674;BME280;7937;48.090;16.212;2022-11-20T08:49:41;97325.56;;;0.84;95.19
15674;BME280;7937;48.090;16.212;2022-11-20T08:52:43;97330.69;;;0.85;95.23
15674;BME280;7937;48.090;16.212;2022-11-20T08:55:46;97325.44;;;0.87;94.67
15674;BME280;7937;48.090;16.212;2022-11-20T08:58:49;97322.72;;;0.90;94.04
15674;BME280;7937;48.090;16.212;2022-11-20T09:02:12;97317.06;;;0.99;93.58
15674;BME280;7937;48.090;16.212;2022-11-20T09:05:14;97316.00;;;1.20;93.52
15674;BME280;7937;48.090;16.212;2022-11-20T09:08:16;97316.25;;;1.50;92.68
15674;BME280;7937;48.090;16.212;2022-11-20T09:11:18;97315.63;;;1.62;91.75
15674;BME280;7937;48.090;16.212;2022-11-20T09:14:20;97315.03;;;1.74;91.29
15674;BME280;7937;48.090;16.212;2022-11-20T09:17:23;97309.72;;;1.93;90.33
15674;BME280;7937;48.090;16.212;2022-11-20T09:20:26;97309.16;;;2.04;88.87
15674;BME280;7937;48.090;16.212;2022-11-20T09:23:32;97299.34;;;2.09;87.87
15674;BME280;7937;48.090;16.212;2022-11-20T09:26:35;97296.91;;;2.06;87.64
15674;BME280;7937;48.090;16.212;2022-11-20T09:29:37;97294.03;;;1.95;88.41
15674;BME280;7937;48.090;16.212;2022-11-20T09:32:40;97298.34;;;1.78;88.15
15674;BME280;7937;48.090;16.212;2022-11-20T09:35:43;97303.31;;;1.66;88.85
15674;BME280;7937;48.090;16.212;2022-11-20T09:38:46;97298.19;;;1.64;89.53
15674;BME280;7937;48.090;16.212;2022-11-20T09:48:16;97291.25;;;1.65;90.84
15674;BME280;7937;48.090;16.212;2022-11-20T09:51:51;97285.72;;;1.88;90.70
15674;BME280;7937;48.090;16.212;2022-11-20T09:54:56;97289.59;;;2.12;90.50
15674;BME280;7937;48.090;16.212;2022-11-20T09:57:59;97291.06;;;2.18;89.75
15674;BME280;7937;48.090;16.212;2022-11-20T10:01:10;97281.00;;;2.28;89.40
15674;BME280;7937;48.090;16.212;2022-11-20T10:04:16;97277.06;;;2.36;88.90
15674;BME280;7937;48.090;16.212;2022-11-20T10:07:24;97275.63;;;2.46;88.41
15674;BME280;7937;48.090;16.212;2022-11-20T10:14:25;97269.59;;;2.46;87.58
15674;BME280;7937;48.090;16.212;2022-11-20T10:21:27;97266.38;;;2.41;87.57
15674;BME280;7937;48.090;16.212;2022-11-20T10:31:32;97261.75;;;2.62;88.04
15674;BME280;7937;48.090;16.212;2022-11-20T10:37:50;97256.19;;;2.83;87.39
15674;BME280;7937;48.090;16.212;2022-11-20T10:40:59;97264.50;;;2.90;86.30
15674;BME280;7937;48.090;16.212;2022-11-20T10:44:27;97263.56;;;2.91;86.38
15674;BME280;7937;48.090;16.212;2022-11-20T10:48:07;97254.75;;;2.93;86.52
15674;BME280;7937;48.090;16.212;2022-11-20T10:54:36;97260.81;;;2.94;85.64
15674;BME280;7937;48.090;16.212;2022-11-20T11:01:24;97253.06;;;3.08;86.13
15674;BME280;7937;48.090;16.212;2022-11-20T11:07:35;97245.94;;;3.40;86.70
15674;BME280;7937;48.090;16.212;2022-11-20T11:14:12;97234.09;;;3.79;87.22
15674;BME280;7937;48.090;16.212;2022-11-20T11:17:33;97228.94;;;3.91;86.36
15674;BME280;7937;48.090;16.212;2022-11-20T11:20:36;97232.06;;;3.98;86.43
15674;BME280;7937;48.090;16.212;2022-11-20T11:23:42;97232.88;;;4.13;86.49
15674;BME280;7937;48.090;16.212;2022-11-20T11:26:55;97234.63;;;4.26;87.05
15674;BME280;7937;48.090;16.212;2022-11-20T11:30:12;97227.97;;;4.49;85.68
15674;BME280;7937;48.090;16.212;2022-11-20T11:33:27;97223.94;;;4.85;84.44
15674;BME280;7937;48.090;16.212;2022-11-20T11:36:29;97227.63;;;4.95;82.38
15674;BME280;7937;48.090;16.212;2022-11-20T11:39:33;97227.44;;;5.10;81.79
15674;BME280;7937;48.090;16.212;2022-11-20T11:42:44;97215.16;;;5.25;81.48
15674;BME280;7937;48.090;16.212;2022-11-20T11:45:55;97218.50;;;5.27;81.93
15674;BME280;7937;48.090;16.212;2022-11-20T11:52:15;97201.47;;;5.47;83.07
15674;BME280;7937;48.090;16.212;2022-11-20T11:55:55;97196.13;;;5.74;82.97
15674;BME280;7937;48.090;16.212;2022-11-20T11:59:00;97183.97;;;6.11;81.36
15674;BME280;7937;48.090;16.212;2022-11-20T12:02:25;97183.94;;;6.23;81.60
15674;BME280;7937;48.090;16.212;2022-11-20T12:05:39;97180.19;;;6.27;80.81
15674;BME280;7937;48.090;16.212;2022-11-20T12:08:52;97180.84;;;6.42;81.39
15674;BME280;7937;48.090;16.212;2022-11-20T12:12:20;97178.84;;;6.70;81.87
15674;BME280;7937;48.090;16.212;2022-11-20T12:15:33;97174.03;;;6.76;80.83
15674;BME280;7937;48.090;16.212;2022-11-20T12:18:36;97177.97;;;6.82;80.58
15674;BME280;7937;48.090;16.212;2022-11-20T12:25:35;97183.47;;;7.14;81.29
15674;BME280;7937;48.090;16.212;2022-11-20T12:28:52;97188.34;;;7.53;79.22
15674;BME280;7937;48.090;16.212;2022-11-20T12:38:58;97187.41;;;9.50;69.10
15674;BME280;7937;48.090;16.212;2022-11-20T12:42:17;97177.81;;;11.48;62.43
15674;BME280;7937;48.090;16.212;2022-11-20T12:45:55;97170.09;;;13.38;52.80
15674;BME280;7937;48.090;16.212;2022-11-20T12:52:37;97171.16;;;16.20;47.20
15674;BME280;7937;48.090;16.212;2022-11-20T12:56:00;97170.13;;;16.30;43.97
15674;BME280;7937;48.090;16.212;2022-11-20T12:59:10;97173.81;;;13.89;48.91
15674;BME280;7937;48.090;16.212;2022-11-20T13:05:27;97178.22;;;9.45;61.76
15674;BME280;7937;48.090;16.212;2022-11-20T13:08:37;97182.28;;;8.20;66.06
15674;BME280;7937;48.090;16.212;2022-11-20T13:12:06;97181.94;;;7.68;67.94
15674;BME280;7937;48.090;16.212;2022-11-20T13:16:15;97179.53;;;7.19;71.82
15674;BME280;7937;48.090;16.212;2022-11-20T13:18:45;97175.38;;;6.69;75.16
15674;BME280;7937;48.090;16.212;2022-11-20T13:21:50;97181.25;;;6.12;77.78
15674;BME280;7937;48.090;16.212;2022-11-20T13:24:53;97186.50;;;6.00;79.09
15674;BME280;7937;48.090;16.212;2022-11-20T13:27:58;97176.25;;;5.97;79.30
15674;BME280;7937;48.090;16.212;2022-11-20T13:31:00;97173.41;;;5.87;80.09
15674;BME280;7937;48.090;16.212;2022-11-20T13:34:05;97179.78;;;5.70;81.18
15674;BME280;7937;48.090;16.212;2022-11-20T13:37:25;97174.78;;;5.67;81.81
15674;BME280;7937;48.090;16.212;2022-11-20T13:40:28;97172.38;;;5.64;83.39
15674;BME280;7937;48.090;16.212;2022-11-20T13:43:35;97158.75;;;5.59;83.72
15674;BME280;7937;48.090;16.212;2022-11-20T13:46:46;97163.28;;;5.57;84.24
15674;BME280;7937;48.090;16.212;2022-11-20T13:49:51;97153.75;;;5.69;82.24
15674;BME280;7937;48.090;16.212;2022-11-20T13:53:28;97155.28;;;5.71;82.88
15674;BME280;7937;48.090;16.212;2022-11-20T13:56:47;97152.16;;;5.53;84.42
15674;BME280;7937;48.090;16.212;2022-11-20T14:03:09;97155.72;;;5.27;86.05
15674;BME280;7937;48.090;16.212;2022-11-20T14:06:31;97158.22;;;5.16;86.55
15674;BME280;7937;48.090;16.212;2022-11-20T14:09:35;97156.22;;;5.07;87.13
15674;BME280;7937;48.090;16.212;2022-11-20T14:12:38;97151.00;;;5.07;87.78
15674;BME280;7937;48.090;16.212;2022-11-20T14:15:41;97160.72;;;5.05;87.45
15674;BME280;7937;48.090;16.212;2022-11-20T14:18:46;97145.75;;;4.94;87.37
15674;BME280;7937;48.090;16.212;2022-11-20T14:21:53;97149.16;;;4.82;88.31
15674;BME280;7937;48.090;16.212;2022-11-20T14:25:04;97149.00;;;4.71;89.14
15674;BME280;7937;48.090;16.212;2022-11-20T14:28:38;97145.81;;;4.53;89.47
15674;BME280;7937;48.090;16.212;2022-11-20T14:31:44;97151.69;;;4.30;90.07
15674;BME280;7937;48.090;16.212;2022-11-20T14:35:06;97146.53;;;4.01;90.49
15674;BME280;7937;48.090;16.212;2022-11-20T14:38:16;97146.09;;;3.81;91.37
15674;BME280;7937;48.090;16.212;2022-11-20T14:41:22;97149.06;;;3.60;92.24
15674;BME280;7937;48.090;16.212;2022-11-20T14:44:33;97147.81;;;3.39;92.79
15674;BME280;7937;48.090;16.212;2022-11-20T14:47:40;97152.88;;;3.12;92.75
15674;BME280;7937;48.090;16.212;2022-11-20T14:50:44;97149.56;;;2.94;93.64
15674;BME280;7937;48.090;16.212;2022-11-20T14:53:47;97156.50;;;2.80;93.90
15674;BME280;7937;48.090;16.212;2022-11-20T14:57:01;97156.72;;;2.61;93.67
15674;BME280;7937;48.090;16.212;2022-11-20T15:00:20;97157.13;;;2.39;94.15
15674;BME280;7937;48.090;16.212;2022-11-20T15:03:38;97145.94;;;2.21;94.79
15674;BME280;7937;48.090;16.212;2022-11-20T15:06:51;97152.25;;;2.02;94.67
15674;BME280;7937;48.090;16.212;2022-11-20T15:13:43;97149.03;;;1.65;95.09
15674;BME280;7937;48.090;16.212;2022-11-20T15:16:45;97147.34;;;1.48;95.27
15674;BME280;7937;48.090;16.212;2022-11-20T15:19:48;97142.78;;;1.36;95.75
15674;BME280;7937;48.090;16.212;2022-11-20T15:22:51;97140.13;;;1.21;95.94
15674;BME280;7937;48.090;16.212;2022-11-20T15:25:55;97139.88;;;1.09;96.06
15674;BME280;7937;48.090;16.212;2022-11-20T15:28:58;97141.31;;;0.98;96.50
15674;BME280;7937;48.090;16.212;2022-11-20T15:32:01;97139.34;;;0.86;96.58
15674;BME280;7937;48.090;16.212;2022-11-20T15:35:10;97142.31;;;0.78;97.05
15674;BME280;7937;48.090;16.212;2022-11-20T15:38:13;97148.06;;;0.67;97.42
15674;BME280;7937;48.090;16.212;2022-11-20T15:41:16;97148.50;;;0.58;97.54
15674;BME280;7937;48.090;16.212;2022-11-20T15:44:19;97140.16;;;0.52;97.81
15674;BME280;7937;48.090;16.212;2022-11-20T15:47:25;97140.53;;;0.44;97.53
15674;BME280;7937;48.090;16.212;2022-11-20T15:50:39;97146.88;;;0.39;97.64
15674;BME280;7937;48.090;16.212;2022-11-20T15:53:45;97150.59;;;0.33;97.97
15674;BME280;7937;48.090;16.212;2022-11-20T15:56:52;97155.19;;;0.28;97.68
15674;BME280;7937;48.090;16.212;2022-11-20T15:59:56;97155.38;;;0.23;98.01
15674;BME280;7937;48.090;16.212;2022-11-20T16:02:59;97167.75;;;0.18;97.90
15674;BME280;7937;48.090;16.212;2022-11-20T16:06:03;97160.25;;;0.12;98.07
15674;BME280;7937;48.090;16.212;2022-11-20T16:09:07;97160.47;;;0.08;98.47
15674;BME280;7937;48.090;16.212;2022-11-20T16:12:11;97151.91;;;0.06;97.81
15674;BME280;7937;48.090;16.212;2022-11-20T16:15:34;97152.22;;;-0.01;98.51
15674;BME280;7937;48.090;16.212;2022-11-20T16:18:50;97146.44;;;-0.07;98.49
15674;BME280;7937;48.090;16.212;2022-11-20T16:21:53;97145.91;;;-0.14;98.52
15674;BME280;7937;48.090;16.212;2022-11-20T16:25:03;97147.13;;;-0.21;98.04
15674;BME280;7937;48.090;16.212;2022-11-20T16:28:07;97145.69;;;-0.28;98.57
15674;BME280;7937;48.090;16.212;2022-11-20T16:31:19;97144.16;;;-0.32;98.94
15674;BME280;7937;48.090;16.212;2022-11-20T16:34:22;97156.47;;;-0.37;99.29
15674;BME280;7937;48.090;16.212;2022-11-20T16:37:26;97149.06;;;-0.45;99.02
15674;BME280;7937;48.090;16.212;2022-11-20T16:40:29;97155.28;;;-0.49;99.59
15674;BME280;7937;48.090;16.212;2022-11-20T16:43:33;97153.81;;;-0.54;99.43
15674;BME280;7937;48.090;16.212;2022-11-20T16:46:38;97158.22;;;-0.56;100.00
15674;BME280;7937;48.090;16.212;2022-11-20T16:49:42;97166.13;;;-0.59;100.00
15674;BME280;7937;48.090;16.212;2022-11-20T16:52:45;97159.91;;;-0.55;100.00
15674;BME280;7937;48.090;16.212;2022-11-20T16:55:48;97165.81;;;-0.52;99.78
15674;BME280;7937;48.090;16.212;2022-11-20T16:58:54;97156.28;;;-0.51;99.84
15674;BME280;7937;48.090;16.212;2022-11-20T17:01:58;97164.13;;;-0.53;100.00
15674;BME280;7937;48.090;16.212;2022-11-20T17:05:01;97157.44;;;-0.58;100.00
15674;BME280;7937;48.090;16.212;2022-11-20T17:08:04;97166.28;;;-0.62;100.00
15674;BME280;7937;48.090;16.212;2022-11-20T17:11:09;97158.63;;;-0.65;100.00
15674;BME280;7937;48.090;16.212;2022-11-20T17:14:12;97157.84;;;-0.67;100.00
15674;BME280;7937;48.090;16.212;2022-11-20T17:17:15;97163.03;;;-0.67;100.00
15674;BME280;7937;48.090;16.212;2022-11-20T17:20:20;97155.47;;;-0.72;100.00
15674;BME280;7937;48.090;16.212;2022-11-20T17:23:24;97151.25;;;-0.75;100.00
15674;BME280;7937;48.090;16.212;2022-11-20T17:26:33;97145.44;;;-0.80;100.00
15674;BME280;7937;48.090;16.212;2022-11-20T17:29:36;97141.31;;;-0.84;100.00
15674;BME280;7937;48.090;16.212;2022-11-20T17:32:43;97132.75;;;-0.86;100.00
15674;BME280;7937;48.090;16.212;2022-11-20T17:35:50;97138.84;;;-0.87;100.00
15674;BME280;7937;48.090;16.212;2022-11-20T17:38:53;97149.00;;;-0.82;100.00